createdAt,value
2023-02-18T00:01:20.998Z,98086.34
2023-02-18T00:03:48.380Z,98081.03
2023-02-18T00:06:16.525Z,98087.59
2023-02-18T00:08:45.105Z,98085.59
2023-02-18T00:11:12.923Z,98084.72
2023-02-18T00:13:43.069Z,98089.91
2023-02-18T00:16:12.559Z,98081.09
2023-02-18T00:18:42.174Z,98087.16
2023-02-18T00:21:09.425Z,98087.88
2023-02-18T00:23:36.557Z,98086.81
2023-02-18T00:26:11.145Z,98075.31
2023-02-18T00:28:37.981Z,98076.13
2023-02-18T00:31:18.213Z,98078.84
2023-02-18T00:33:47.532Z,98071.81
2023-02-18T00:36:16.376Z,98078.84
2023-02-18T00:38:54.661Z,98077.66
2023-02-18T00:41:26.003Z,98075.94
2023-02-18T00:43:53.348Z,98074.84
2023-02-18T00:46:23.243Z,98076.72
2023-02-18T00:48:50.043Z,98085.78
2023-02-18T00:51:17.050Z,98079.59
2023-02-18T00:53:43.853Z,98084.94
2023-02-18T00:56:11.024Z,98079.69
2023-02-18T00:58:40.297Z,98076.72
2023-02-18T01:01:08.844Z,98086.09
2023-02-18T01:03:37.013Z,98078.47
2023-02-18T01:06:10.221Z,98083.28
2023-02-18T01:08:40.088Z,98075.31
2023-02-18T01:11:08.874Z,98076.56
2023-02-18T01:13:36.195Z,98076.69
2023-02-18T01:16:03.031Z,98075.75
2023-02-18T01:18:30.448Z,98082.25
2023-02-18T01:20:57.081Z,98073.97
2023-02-18T01:23:24.259Z,98073.47
2023-02-18T01:25:51.358Z,98062.97
2023-02-18T01:28:19.320Z,98069.78
2023-02-18T01:30:45.929Z,98070.84
2023-02-18T01:33:12.853Z,98066.66
2023-02-18T01:35:42.883Z,98064.81
2023-02-18T01:38:10.104Z,98055.84
2023-02-18T01:40:43.808Z,98060.13
2023-02-18T01:43:12.363Z,98059.50
2023-02-18T01:46:00.265Z,98058.06
2023-02-18T01:48:29.916Z,98058.19
2023-02-18T01:51:19.086Z,98057.50
2023-02-18T01:53:45.595Z,98056.72
2023-02-18T01:56:20.020Z,98061.47
2023-02-18T01:58:46.674Z,98048.09
2023-02-18T02:01:13.481Z,98044.94
2023-02-18T02:03:40.056Z,98049.81
2023-02-18T02:06:15.325Z,98046.69
2023-02-18T02:08:47.130Z,98049.69
2023-02-18T02:11:35.170Z,98044.94
2023-02-18T02:14:22.880Z,98033.03
2023-02-18T02:17:06.386Z,98042.91
2023-02-18T02:19:56.945Z,98034.09
2023-02-18T02:22:54.171Z,98040.63
2023-02-18T02:25:29.712Z,98026.16
2023-02-18T02:28:14.457Z,98028.75
2023-02-18T02:30:56.157Z,98015.19
2023-02-18T02:33:57.449Z,98019.88
2023-02-18T02:36:39.162Z,98012.59
2023-02-18T02:39:14.635Z,98009.91
2023-02-18T02:42:18.413Z,98002.97
2023-02-18T02:44:55.751Z,98008.78
2023-02-18T02:47:40.615Z,98016.25
2023-02-18T02:50:14.787Z,98003.91
2023-02-18T02:52:47.986Z,98014.88
2023-02-18T02:55:14.703Z,98008.06
2023-02-18T02:57:44.885Z,98007.88
2023-02-18T03:00:13.674Z,98004.53
2023-02-18T03:03:03.613Z,98005.66
2023-02-18T03:05:36.383Z,98007.28
2023-02-18T03:08:19.695Z,97990.66
2023-02-18T03:10:49.165Z,97992.13
2023-02-18T03:13:39.803Z,97993.81
2023-02-18T03:16:24.005Z,97990.00
2023-02-18T03:19:01.655Z,97994.41
2023-02-18T03:21:44.791Z,98000.16
2023-02-18T03:24:40.919Z,97997.03
2023-02-18T03:27:29.213Z,98006.63
2023-02-18T03:30:01.526Z,98000.25
2023-02-18T03:32:30.549Z,98000.25
2023-02-18T03:35:03.080Z,97991.06
2023-02-18T03:37:32.762Z,98000.16
2023-02-18T03:40:02.038Z,97990.63
2023-02-18T03:42:31.228Z,97991.69
2023-02-18T03:44:57.900Z,97987.38
2023-02-18T03:47:24.981Z,97980.56
2023-02-18T03:49:51.567Z,97987.94
2023-02-18T03:52:18.406Z,97985.63
2023-02-18T03:54:44.975Z,97981.34
2023-02-18T03:57:11.558Z,97987.72
2023-02-18T03:59:38.143Z,97979.69
2023-02-18T04:02:05.205Z,97975.69
2023-02-18T04:04:31.825Z,97983.00
2023-02-18T04:06:58.468Z,97985.66
2023-02-18T04:09:25.538Z,97976.44
2023-02-18T04:11:52.112Z,97981.19
2023-02-18T04:14:18.714Z,97984.94
2023-02-18T04:16:45.444Z,97982.28
2023-02-18T04:19:12.082Z,97977.47
2023-02-18T04:21:38.720Z,97977.03
2023-02-18T04:24:05.563Z,97982.31
2023-02-18T04:26:34.632Z,97980.84
2023-02-18T04:29:06.054Z,97984.22
2023-02-18T04:31:32.732Z,97983.44
2023-02-18T04:34:02.099Z,97979.50
2023-02-18T04:36:28.696Z,97980.66
2023-02-18T04:38:55.250Z,97983.56
2023-02-18T04:41:22.031Z,97978.88
2023-02-18T04:43:48.616Z,97986.72
2023-02-18T04:46:15.198Z,97987.72
2023-02-18T04:48:41.781Z,97985.66
2023-02-18T04:51:08.491Z,97986.50
2023-02-18T04:53:35.047Z,97977.41
2023-02-18T04:56:02.165Z,97978.56
2023-02-18T04:58:28.757Z,97982.22
2023-02-18T05:01:00.178Z,97991.47
2023-02-18T05:03:27.234Z,97987.31
2023-02-18T05:05:53.789Z,97988.38
2023-02-18T05:08:20.392Z,97986.25
2023-02-18T05:10:49.188Z,97986.50
2023-02-18T05:13:18.976Z,97988.47
2023-02-18T05:15:47.865Z,97990.06
2023-02-18T05:18:14.946Z,97996.88
2023-02-18T05:20:41.568Z,97997.28
2023-02-18T05:23:10.593Z,97993.19
2023-02-18T05:25:37.134Z,97992.88
2023-02-18T05:28:03.999Z,97997.28
2023-02-18T05:30:30.595Z,98002.53
2023-02-18T05:32:57.243Z,97996.53
2023-02-18T05:35:26.171Z,97996.13
2023-02-18T05:37:52.744Z,97985.13
2023-02-18T05:40:21.530Z,97996.16
2023-02-18T05:42:48.094Z,97993.75
2023-02-18T05:45:14.747Z,97989.03
2023-02-18T05:47:41.397Z,97987.97
2023-02-18T05:50:08.654Z,97986.19
2023-02-18T05:52:37.590Z,97982.84
2023-02-18T05:55:04.440Z,97988.94
2023-02-18T05:57:31.173Z,97984.88
2023-02-18T06:00:00.077Z,97984.88
2023-02-18T06:02:26.831Z,97990.59
2023-02-18T06:04:53.386Z,97999.53
2023-02-18T06:07:20.766Z,97996.06
2023-02-18T06:09:47.927Z,97991.13
2023-02-18T06:12:14.849Z,97999.72
2023-02-18T06:14:43.888Z,97998.56
2023-02-18T06:17:13.607Z,97995.22
2023-02-18T06:19:42.659Z,97995.50
2023-02-18T06:22:09.195Z,97990.94
2023-02-18T06:24:35.758Z,97996.66
2023-02-18T06:27:03.565Z,97997.88
2023-02-18T06:29:31.377Z,97996.66
2023-02-18T06:32:00.477Z,97997.34
2023-02-18T06:34:27.202Z,98000.38
2023-02-18T06:36:53.873Z,97991.56
2023-02-18T06:39:20.511Z,97993.13
2023-02-18T06:41:47.158Z,97996.00
2023-02-18T06:44:17.445Z,98002.94
2023-02-18T06:46:44.705Z,97998.28
2023-02-18T06:49:11.365Z,97995.75
2023-02-18T06:51:38.207Z,98002.88
2023-02-18T06:54:05.983Z,97995.75
2023-02-18T06:56:32.741Z,98010.50
2023-02-18T06:58:59.316Z,98011.13
2023-02-18T07:01:26.006Z,98000.97
2023-02-18T07:03:52.644Z,98001.41
2023-02-18T07:06:19.230Z,98005.69
2023-02-18T07:08:46.075Z,98002.34
2023-02-18T07:11:12.683Z,98008.25
2023-02-18T07:13:39.255Z,98002.44
2023-02-18T07:16:06.075Z,98008.88
2023-02-18T07:18:32.727Z,98013.63
2023-02-18T07:21:01.604Z,98018.75
2023-02-18T07:23:28.164Z,98011.47
2023-02-18T07:26:07.018Z,98016.25
2023-02-18T07:28:33.741Z,98007.19
2023-02-18T07:31:00.604Z,98008.66
2023-02-18T07:33:27.305Z,98018.66
2023-02-18T07:35:58.584Z,98017.16
2023-02-18T07:38:28.402Z,98012.88
2023-02-18T07:40:56.024Z,98009.63
2023-02-18T07:43:29.880Z,98015.00
2023-02-18T07:45:58.976Z,98014.13
2023-02-18T07:48:25.555Z,98012.41
2023-02-18T07:50:54.353Z,98007.53
2023-02-18T07:53:20.957Z,98012.53
2023-02-18T07:55:50.382Z,98004.28
2023-02-18T07:58:24.392Z,98002.41
2023-02-18T08:00:53.514Z,98007.53
2023-02-18T08:03:31.238Z,98008.75
2023-02-18T08:06:01.375Z,98002.91
2023-02-18T08:08:30.435Z,97990.97
2023-02-18T08:11:01.039Z,97996.44
2023-02-18T08:13:30.209Z,97996.94
2023-02-18T08:15:59.395Z,97990.00
2023-02-18T08:18:28.767Z,98000.47
2023-02-18T08:20:55.780Z,97982.44
2023-02-18T08:23:23.479Z,97994.84
2023-02-18T08:25:51.705Z,97984.25
2023-02-18T08:28:19.798Z,97980.03
2023-02-18T08:30:51.485Z,97980.13
2023-02-18T08:33:18.648Z,97983.47
2023-02-18T08:35:46.942Z,97980.25
2023-02-18T08:38:13.887Z,97991.09
2023-02-18T08:40:42.630Z,97969.03
2023-02-18T08:43:10.302Z,97973.56
2023-02-18T08:45:38.251Z,97970.78
2023-02-18T08:48:17.564Z,97980.13
2023-02-18T08:50:47.659Z,97976.28
2023-02-18T08:53:14.923Z,97983.88
2023-02-18T08:55:41.835Z,97971.16
2023-02-18T08:58:08.651Z,97971.25
2023-02-18T09:00:35.710Z,97970.16
2023-02-18T09:03:02.427Z,97969.69
2023-02-18T09:05:29.145Z,97971.91
2023-02-18T09:07:55.815Z,97973.06
2023-02-18T09:10:22.406Z,97974.59
2023-02-18T09:12:51.427Z,97972.78
2023-02-18T09:15:18.217Z,97962.41
2023-02-18T09:17:47.189Z,97963.72
2023-02-18T09:20:14.431Z,97959.66
2023-02-18T09:22:41.085Z,97965.56
2023-02-18T09:25:07.953Z,97961.47
2023-02-18T09:27:36.885Z,97962.63
2023-02-18T09:30:04.029Z,97949.84
2023-02-18T09:32:35.174Z,97943.06
2023-02-18T09:35:03.337Z,97946.50
2023-02-18T09:37:30.106Z,97935.03
2023-02-18T09:39:56.821Z,97935.31
2023-02-18T09:42:30.609Z,97928.22
2023-02-18T09:45:00.617Z,97944.13
2023-02-18T09:47:34.830Z,97926.47
2023-02-18T09:50:24.505Z,97932.13
2023-02-18T09:52:52.033Z,97926.56
2023-02-18T09:55:38.979Z,97933.19
2023-02-18T09:58:13.645Z,97925.66
2023-02-18T10:00:44.672Z,97935.84
2023-02-18T10:03:18.179Z,97938.56
2023-02-18T10:06:34.775Z,97929.00
2023-02-18T10:09:10.909Z,97923.13
2023-02-18T10:11:45.507Z,97920.13
2023-02-18T10:14:14.614Z,97919.81
2023-02-18T10:16:43.179Z,97916.94
2023-02-18T10:19:12.600Z,97918.19
2023-02-18T10:21:39.425Z,97914.84
2023-02-18T10:24:19.686Z,97917.84
2023-02-18T10:26:46.292Z,97908.25
2023-02-18T10:29:17.048Z,97918.09
2023-02-18T10:32:09.321Z,97915.22
2023-02-18T10:34:47.842Z,97901.66
2023-02-18T10:37:42.920Z,97907.94
2023-02-18T10:40:22.664Z,97894.78
2023-02-18T10:43:27.027Z,97882.34
2023-02-18T10:45:59.799Z,97866.84
2023-02-18T10:48:58.724Z,97867.44
2023-02-18T10:51:31.350Z,97859.78
2023-02-18T10:53:58.067Z,97849.38
2023-02-18T10:56:36.023Z,97832.72
2023-02-18T10:59:11.365Z,97841.72
2023-02-18T11:01:38.949Z,97829.81
2023-02-18T11:04:18.110Z,97830.22
2023-02-18T11:06:46.911Z,97827.47
2023-02-18T11:09:48.367Z,97829.00
2023-02-18T11:12:22.349Z,97823.72
2023-02-18T11:15:03.891Z,97824.13
2023-02-18T11:17:33.076Z,97814.84
2023-02-18T11:20:04.212Z,97800.59
2023-02-18T11:22:33.452Z,97805.84
2023-02-18T11:25:03.056Z,97800.00
2023-02-18T11:27:46.291Z,97803.34
2023-02-18T11:30:20.052Z,97788.38
2023-02-18T11:32:48.574Z,97788.34
2023-02-18T11:35:24.545Z,97783.34
2023-02-18T11:37:52.040Z,97783.09
2023-02-18T11:40:34.020Z,97769.22
2023-02-18T11:43:29.401Z,97762.81
2023-02-18T11:46:16.643Z,97767.59
2023-02-18T11:48:43.311Z,97769.34
2023-02-18T11:51:36.255Z,97755.09
2023-02-18T11:54:22.923Z,97750.34
2023-02-18T11:57:13.835Z,97740.97
2023-02-18T11:59:42.469Z,97732.72
2023-02-18T12:02:11.906Z,97732.56
2023-02-18T12:04:53.124Z,97722.44
2023-02-18T12:07:25.611Z,97717.84
2023-02-18T12:09:58.139Z,97718.72
2023-02-18T12:12:31.242Z,97706.19
2023-02-18T12:14:59.575Z,97701.63
2023-02-18T12:17:49.991Z,97693.63
2023-02-18T12:20:19.471Z,97684.13
2023-02-18T12:23:09.073Z,97680.22
2023-02-18T12:26:04.032Z,97677.38
2023-02-18T12:29:00.370Z,97665.16
2023-02-18T12:31:45.036Z,97652.09
2023-02-18T12:34:36.556Z,97647.88
2023-02-18T12:37:18.415Z,97650.13
2023-02-18T12:40:09.638Z,97647.28
2023-02-18T12:42:57.220Z,97640.84
2023-02-18T12:45:42.180Z,97641.19
2023-02-18T12:48:17.062Z,97631.25
2023-02-18T12:50:49.559Z,97637.69
2023-02-18T12:53:27.189Z,97630.16
2023-02-18T12:56:18.264Z,97616.56
2023-02-18T12:58:56.904Z,97624.34
2023-02-18T13:01:34.148Z,97634.47
2023-02-18T13:04:23.757Z,97628.34
2023-02-18T13:06:55.928Z,97625.81
2023-02-18T13:10:05.431Z,97621.66
2023-02-18T13:12:54.414Z,97615.88
2023-02-18T13:15:28.605Z,97626.19
2023-02-18T13:18:01.406Z,97623.53
2023-02-18T13:20:40.717Z,97614.22
2023-02-18T13:23:16.024Z,97623.56
2023-02-18T13:25:43.131Z,97612.94
2023-02-18T13:28:40.413Z,97615.47
2023-02-18T13:31:25.157Z,97606.72
2023-02-18T13:34:14.757Z,97607.41
2023-02-18T13:37:08.097Z,97604.19
2023-02-18T13:39:35.807Z,97614.47
2023-02-18T13:42:22.339Z,97602.84
2023-02-18T13:45:03.455Z,97614.09
2023-02-18T13:47:41.016Z,97621.66
2023-02-18T13:50:40.896Z,97616.38
2023-02-18T13:53:07.595Z,97619.38
2023-02-18T13:55:52.666Z,97610.34
2023-02-18T13:58:36.946Z,97603.78
2023-02-18T14:01:13.670Z,97610.47
2023-02-18T14:03:42.955Z,97615.22
2023-02-18T14:06:22.035Z,97606.13
2023-02-18T14:08:49.533Z,97624.50
2023-02-18T14:11:16.144Z,97616.34
2023-02-18T14:13:56.029Z,97611.75
2023-02-18T14:16:25.066Z,97608.78
2023-02-18T14:18:59.989Z,97620.78
2023-02-18T14:22:12.791Z,97615.28
2023-02-18T14:24:51.890Z,97614.59
2023-02-18T14:27:18.884Z,97610.16
2023-02-18T14:29:45.435Z,97617.38
2023-02-18T14:32:13.251Z,97614.75
2023-02-18T14:35:08.623Z,97623.66
2023-02-18T14:37:46.496Z,97623.16
2023-02-18T14:40:28.347Z,97623.69
2023-02-18T14:43:16.974Z,97616.06
2023-02-18T14:45:55.589Z,97615.69
2023-02-18T14:48:22.021Z,97605.59
2023-02-18T14:50:50.968Z,97604.78
2023-02-18T14:53:24.862Z,97617.94
2023-02-18T14:55:55.433Z,97613.50
2023-02-18T14:58:59.641Z,97609.31
2023-02-18T15:01:36.899Z,97604.91
2023-02-18T15:04:04.679Z,97603.53
2023-02-18T15:06:37.124Z,97602.84
2023-02-18T15:09:13.535Z,97600.75
2023-02-18T15:11:46.751Z,97606.84
2023-02-18T15:14:25.356Z,97599.63
2023-02-18T15:16:53.024Z,97594.94
2023-02-18T15:19:23.843Z,97600.50
2023-02-18T15:21:53.309Z,97602.84
2023-02-18T15:24:38.544Z,97614.59
2023-02-18T15:27:18.145Z,97608.22
2023-02-18T15:29:49.705Z,97610.72
2023-02-18T15:32:23.818Z,97608.50
2023-02-18T15:34:52.896Z,97603.19
2023-02-18T15:37:19.443Z,97607.09
2023-02-18T15:39:48.481Z,97625.34
2023-02-18T15:42:33.650Z,97617.47
2023-02-18T15:45:25.655Z,97610.09
2023-02-18T15:47:55.774Z,97617.16
2023-02-18T15:50:28.572Z,97610.91
2023-02-18T15:52:59.736Z,97615.47
2023-02-18T15:55:36.472Z,97617.28
2023-02-18T15:58:05.826Z,97616.00
2023-02-18T16:00:37.135Z,97616.16
2023-02-18T16:03:13.783Z,97622.19
2023-02-18T16:05:43.237Z,97620.84
2023-02-18T16:08:24.568Z,97622.75
2023-02-18T16:11:02.975Z,97624.69
2023-02-18T16:13:31.392Z,97625.09
2023-02-18T16:16:00.988Z,97628.91
2023-02-18T16:18:38.808Z,97628.50
2023-02-18T16:21:22.988Z,97631.94
2023-02-18T16:23:58.486Z,97627.09
2023-02-18T16:26:33.025Z,97634.84
2023-02-18T16:29:14.220Z,97634.00
2023-02-18T16:31:41.230Z,97640.75
2023-02-18T16:34:08.069Z,97636.59
2023-02-18T16:36:36.783Z,97642.66
2023-02-18T16:39:03.574Z,97647.44
2023-02-18T16:41:30.124Z,97653.38
2023-02-18T16:43:57.132Z,97649.66
2023-02-18T16:46:24.688Z,97644.69
2023-02-18T16:48:57.209Z,97646.63
2023-02-18T16:51:32.132Z,97650.66
2023-02-18T16:53:58.933Z,97659.63
2023-02-18T16:56:27.437Z,97658.09
2023-02-18T16:58:53.998Z,97660.13
2023-02-18T17:01:23.620Z,97667.34
2023-02-18T17:03:50.731Z,97674.59
2023-02-18T17:06:20.161Z,97686.47
2023-02-18T17:08:47.161Z,97679.72
2023-02-18T17:11:23.751Z,97679.78
2023-02-18T17:13:50.897Z,97684.72
2023-02-18T17:16:18.083Z,97680.81
2023-02-18T17:18:45.095Z,97692.94
2023-02-18T17:21:16.879Z,97688.81
2023-02-18T17:23:44.107Z,97692.53
2023-02-18T17:26:18.385Z,97688.38
2023-02-18T17:28:45.009Z,97693.75
2023-02-18T17:31:23.010Z,97700.81
2023-02-18T17:33:50.262Z,97700.31
2023-02-18T17:36:16.802Z,97709.44
2023-02-18T17:38:43.289Z,97715.25
2023-02-18T17:41:11.727Z,97719.94
2023-02-18T17:43:39.122Z,97715.56
2023-02-18T17:46:05.800Z,97713.81
2023-02-18T17:48:32.630Z,97712.31
2023-02-18T17:50:59.077Z,97711.59
2023-02-18T17:53:25.621Z,97721.59
2023-02-18T17:55:52.965Z,97718.38
2023-02-18T17:58:19.489Z,97719.84
2023-02-18T18:00:57.913Z,97729.53
2023-02-18T18:03:24.585Z,97726.31
2023-02-18T18:05:57.019Z,97730.00
2023-02-18T18:08:23.574Z,97734.50
2023-02-18T18:10:56.244Z,97733.47
2023-02-18T18:13:28.764Z,97734.06
2023-02-18T18:15:58.004Z,97727.00
2023-02-18T18:18:25.224Z,97740.41
2023-02-18T18:20:59.663Z,97738.34
2023-02-18T18:23:26.569Z,97734.88
2023-02-18T18:25:54.907Z,97745.75
2023-02-18T18:28:22.410Z,97746.03
2023-02-18T18:30:51.797Z,97737.78
2023-02-18T18:33:31.143Z,97727.56
2023-02-18T18:35:58.748Z,97741.97
2023-02-18T18:38:27.493Z,97736.97
2023-02-18T18:40:55.316Z,97733.41
2023-02-18T18:43:28.777Z,97735.41
2023-02-18T18:45:56.938Z,97731.34
2023-02-18T18:48:24.218Z,97743.41
2023-02-18T18:50:52.506Z,97747.06
2023-02-18T18:53:25.991Z,97735.16
2023-02-18T18:55:55.173Z,97740.78
2023-02-18T18:58:24.312Z,97747.22
2023-02-18T19:01:00.395Z,97745.50
2023-02-18T19:03:28.696Z,97744.78
2023-02-18T19:05:58.027Z,97737.19
2023-02-18T19:08:24.850Z,97744.59
2023-02-18T19:10:56.905Z,97724.16
2023-02-18T19:13:28.959Z,97737.28
2023-02-18T19:16:03.924Z,97738.59
2023-02-18T19:18:32.431Z,97741.59
2023-02-18T19:21:01.790Z,97748.00
2023-02-18T19:23:28.392Z,97746.03
2023-02-18T19:25:54.858Z,97750.66
2023-02-18T19:28:21.366Z,97743.75
2023-02-18T19:30:47.919Z,97752.09
2023-02-18T19:33:15.212Z,97759.75
2023-02-18T19:35:42.988Z,97757.22
2023-02-18T19:38:12.388Z,97755.09
2023-02-18T19:40:39.551Z,97761.16
2023-02-18T19:43:07.387Z,97754.94
2023-02-18T19:45:41.160Z,97755.16
2023-02-18T19:48:09.808Z,97762.09
2023-02-18T19:50:36.341Z,97760.78
2023-02-18T19:53:02.879Z,97759.59
2023-02-18T19:55:29.458Z,97759.03
2023-02-18T19:57:55.947Z,97757.34
2023-02-18T20:00:22.762Z,97762.09
2023-02-18T20:02:50.303Z,97760.91
2023-02-18T20:05:17.938Z,97766.78
2023-02-18T20:07:46.814Z,97762.97
2023-02-18T20:10:16.790Z,97771.31
2023-02-18T20:12:50.856Z,97773.19
2023-02-18T20:15:21.157Z,97777.41
2023-02-18T20:17:47.805Z,97772.97
2023-02-18T20:20:16.552Z,97771.88
2023-02-18T20:22:43.205Z,97772.78
2023-02-18T20:25:09.772Z,97773.94
2023-02-18T20:27:47.936Z,97770.63
2023-02-18T20:30:21.378Z,97769.41
2023-02-18T20:32:47.914Z,97767.53
2023-02-18T20:35:14.410Z,97763.13
2023-02-18T20:37:40.859Z,97766.31
2023-02-18T20:40:07.549Z,97760.50
2023-02-18T20:42:34.084Z,97761.09
2023-02-18T20:45:00.663Z,97766.69
2023-02-18T20:47:27.204Z,97770.00
2023-02-18T20:49:53.672Z,97761.31
2023-02-18T20:52:22.419Z,97771.09
2023-02-18T20:54:48.938Z,97761.19
2023-02-18T20:57:17.867Z,97762.41
2023-02-18T20:59:44.412Z,97761.22
2023-02-18T21:02:17.559Z,97756.56
2023-02-18T21:04:45.118Z,97767.31
2023-02-18T21:07:11.813Z,97765.47
2023-02-18T21:09:38.317Z,97763.56
2023-02-18T21:12:05.236Z,97763.81
2023-02-18T21:14:31.684Z,97754.16
2023-02-18T21:16:58.243Z,97757.88
2023-02-18T21:19:27.165Z,97754.41
2023-02-18T21:21:53.752Z,97761.34
2023-02-18T21:24:20.294Z,97760.38
2023-02-18T21:26:46.738Z,97757.03
2023-02-18T21:29:15.144Z,97756.28
2023-02-18T21:31:43.383Z,97750.47
2023-02-18T21:34:14.463Z,97752.66
2023-02-18T21:36:41.935Z,97753.81
2023-02-18T21:39:09.556Z,97755.63
2023-02-18T21:41:40.984Z,97757.31
2023-02-18T21:44:08.277Z,97758.47
2023-02-18T21:46:36.672Z,97764.69
2023-02-18T21:49:07.014Z,97761.22
2023-02-18T21:51:59.120Z,97756.31
2023-02-18T21:54:31.182Z,97758.72
2023-02-18T21:56:59.459Z,97762.53
2023-02-18T21:59:28.277Z,97760.78
2023-02-18T22:01:55.715Z,97758.03
2023-02-18T22:04:22.941Z,97755.75
2023-02-18T22:06:49.476Z,97761.47
2023-02-18T22:09:16.037Z,97756.47
2023-02-18T22:11:42.857Z,97762.78
2023-02-18T22:14:13.901Z,97759.81
2023-02-18T22:16:41.695Z,97758.88
2023-02-18T22:19:10.035Z,97764.34
2023-02-18T22:21:36.522Z,97754.41
2023-02-18T22:24:05.359Z,97752.16
2023-02-18T22:26:31.948Z,97766.09
2023-02-18T22:28:59.670Z,97761.72
2023-02-18T22:31:28.524Z,97766.72
2023-02-18T22:33:56.439Z,97764.22
2023-02-18T22:36:24.888Z,97768.25
2023-02-18T22:38:52.230Z,97759.44
2023-02-18T22:41:22.104Z,97753.72
2023-02-18T22:43:48.952Z,97757.53
2023-02-18T22:46:17.445Z,97757.56
2023-02-18T22:48:44.660Z,97766.00
2023-02-18T22:51:18.884Z,97764.81
2023-02-18T22:53:45.688Z,97761.50
2023-02-18T22:56:15.550Z,97757.53
2023-02-18T22:58:43.112Z,97765.50
2023-02-18T23:01:23.382Z,97769.69
2023-02-18T23:03:53.315Z,97763.25
2023-02-18T23:06:23.554Z,97768.50
2023-02-18T23:08:50.591Z,97760.63
2023-02-18T23:11:19.185Z,97764.81
2023-02-18T23:14:06.648Z,97762.88
2023-02-18T23:16:53.287Z,97766.50
2023-02-18T23:19:22.950Z,97761.25
2023-02-18T23:21:49.926Z,97759.34
2023-02-18T23:24:16.488Z,97759.34
2023-02-18T23:26:45.424Z,97758.00
2023-02-18T23:29:14.192Z,97757.53
2023-02-18T23:31:40.926Z,97762.78
2023-02-18T23:34:08.459Z,97761.94
2023-02-18T23:36:35.983Z,97761.69
2023-02-18T23:39:08.185Z,97761.50
2023-02-18T23:41:36.660Z,97765.16
2023-02-18T23:44:07.625Z,97753.47
2023-02-18T23:46:34.688Z,97761.97
2023-02-18T23:49:01.526Z,97759.94
2023-02-18T23:51:30.133Z,97760.19
2023-02-18T23:53:57.079Z,97750.88
2023-02-18T23:56:26.011Z,97744.06
2023-02-18T23:59:00.559Z,97751.72
